sensor_id;sensor_type;location;lat;lon;timestamp;pressure;altitude;pressure_sealevel;temperature;humidity
12781;BME280;6454;43.304;24.344;2024-02-15T00:00:15;100821.69;;;6.18;63.92
12781;BME280;6454;43.304;24.344;2024-02-15T00:02:42;100820.63;;;6.29;62.88
12781;BME280;6454;43.304;24.344;2024-02-15T00:05:12;100829.06;;;6.28;62.97
12781;BME280;6454;43.304;24.344;2024-02-15T00:07:39;100832.88;;;6.22;63.44
12781;BME280;6454;43.304;24.344;2024-02-15T00:10:05;100828.47;;;6.01;63.26
12781;BME280;6454;43.304;24.344;2024-02-15T00:12:31;100841.59;;;6.09;63.40
12781;BME280;6454;43.304;24.344;2024-02-15T00:14:57;100835.63;;;6.22;62.30
12781;BME280;6454;43.304;24.344;2024-02-15T00:17:26;100828.50;;;6.26;63.68
12781;BME280;6454;43.304;24.344;2024-02-15T00:19:52;100830.09;;;6.12;62.57
12781;BME280;6454;43.304;24.344;2024-02-15T00:22:17;100829.00;;;6.03;62.75
12781;BME280;6454;43.304;24.344;2024-02-15T00:24:44;100835.84;;;6.05;62.96
12781;BME280;6454;43.304;24.344;2024-02-15T00:27:10;100839.94;;;6.13;63.13
12781;BME280;6454;43.304;24.344;2024-02-15T00:29:36;100839.41;;;6.11;64.08
12781;BME280;6454;43.304;24.344;2024-02-15T00:32:01;100851.41;;;6.15;62.71
12781;BME280;6454;43.304;24.344;2024-02-15T00:34:28;100837.94;;;5.93;63.05
12781;BME280;6454;43.304;24.344;2024-02-15T00:36:54;100835.53;;;5.96;62.97
12781;BME280;6454;43.304;24.344;2024-02-15T00:39:19;100850.75;;;5.92;63.10
12781;BME280;6454;43.304;24.344;2024-02-15T00:41:45;100857.03;;;5.93;63.54
12781;BME280;6454;43.304;24.344;2024-02-15T00:44:11;100839.25;;;5.80;63.94
12781;BME280;6454;43.304;24.344;2024-02-15T00:46:37;100844.75;;;5.90;63.85
12781;BME280;6454;43.304;24.344;2024-02-15T00:49:06;100844.75;;;5.85;63.66
12781;BME280;6454;43.304;24.344;2024-02-15T00:51:32;100841.97;;;5.80;63.29
12781;BME280;6454;43.304;24.344;2024-02-15T00:54:03;100839.47;;;5.74;63.83
12781;BME280;6454;43.304;24.344;2024-02-15T00:56:28;100838.63;;;5.68;64.24
12781;BME280;6454;43.304;24.344;2024-02-15T00:58:56;100830.19;;;5.65;63.59
12781;BME280;6454;43.304;24.344;2024-02-15T01:01:22;100836.47;;;5.65;63.76
12781;BME280;6454;43.304;24.344;2024-02-15T01:03:47;100845.19;;;5.72;64.58
12781;BME280;6454;43.304;24.344;2024-02-15T01:06:13;100838.41;;;5.75;63.86
12781;BME280;6454;43.304;24.344;2024-02-15T01:08:38;100837.94;;;5.93;63.48
12781;BME280;6454;43.304;24.344;2024-02-15T01:11:04;100818.47;;;5.69;64.00
12781;BME280;6454;43.304;24.344;2024-02-15T01:13:31;100829.38;;;5.74;64.18
12781;BME280;6454;43.304;24.344;2024-02-15T01:15:57;100829.75;;;5.88;64.62
12781;BME280;6454;43.304;24.344;2024-02-15T01:18:22;100842.34;;;5.99;63.55
12781;BME280;6454;43.304;24.344;2024-02-15T01:20:48;100840.41;;;5.89;63.74
12781;BME280;6454;43.304;24.344;2024-02-15T01:23:13;100847.97;;;5.82;63.50
12781;BME280;6454;43.304;24.344;2024-02-15T01:25:39;100846.97;;;5.93;63.31
12781;BME280;6454;43.304;24.344;2024-02-15T01:28:05;100843.56;;;5.76;64.11
12781;BME280;6454;43.304;24.344;2024-02-15T01:30:30;100849.00;;;5.71;63.94
12781;BME280;6454;43.304;24.344;2024-02-15T01:32:57;100845.72;;;5.69;64.72
12781;BME280;6454;43.304;24.344;2024-02-15T01:35:22;100832.13;;;5.79;63.78
12781;BME280;6454;43.304;24.344;2024-02-15T01:37:48;100858.03;;;5.77;64.12
12781;BME280;6454;43.304;24.344;2024-02-15T01:40:13;100847.59;;;5.64;64.31
12781;BME280;6454;43.304;24.344;2024-02-15T01:42:39;100846.78;;;5.63;64.49
12781;BME280;6454;43.304;24.344;2024-02-15T01:45:05;100839.72;;;5.67;64.00
12781;BME280;6454;43.304;24.344;2024-02-15T01:47:31;100854.53;;;5.81;63.77
12781;BME280;6454;43.304;24.344;2024-02-15T01:49:57;100851.53;;;5.83;63.30
12781;BME280;6454;43.304;24.344;2024-02-15T01:52:23;100851.84;;;5.86;64.04
12781;BME280;6454;43.304;24.344;2024-02-15T01:54:51;100857.25;;;5.81;64.60
12781;BME280;6454;43.304;24.344;2024-02-15T01:57:19;100855.56;;;5.70;64.71
12781;BME280;6454;43.304;24.344;2024-02-15T01:59:46;100841.91;;;5.65;64.44
12781;BME280;6454;43.304;24.344;2024-02-15T02:02:14;100838.94;;;5.77;64.41
12781;BME280;6454;43.304;24.344;2024-02-15T02:04:41;100859.78;;;5.93;63.80
12781;BME280;6454;43.304;24.344;2024-02-15T02:07:07;100845.44;;;5.71;64.02
12781;BME280;6454;43.304;24.344;2024-02-15T02:09:33;100868.78;;;5.93;63.80
12781;BME280;6454;43.304;24.344;2024-02-15T02:11:59;100854.66;;;6.07;64.27
12781;BME280;6454;43.304;24.344;2024-02-15T02:14:25;100863.13;;;6.10;63.59
12781;BME280;6454;43.304;24.344;2024-02-15T02:16:50;100889.34;;;6.16;63.38
12781;BME280;6454;43.304;24.344;2024-02-15T02:19:17;100867.09;;;5.87;63.83
12781;BME280;6454;43.304;24.344;2024-02-15T02:21:43;100855.16;;;5.93;62.88
12781;BME280;6454;43.304;24.344;2024-02-15T02:24:22;100857.84;;;5.88;63.12
12781;BME280;6454;43.304;24.344;2024-02-15T02:26:49;100867.59;;;5.84;63.03
12781;BME280;6454;43.304;24.344;2024-02-15T02:29:16;100876.97;;;5.93;63.60
12781;BME280;6454;43.304;24.344;2024-02-15T02:31:41;100888.75;;;6.09;63.17
12781;BME280;6454;43.304;24.344;2024-02-15T02:34:08;100894.50;;;6.08;62.92
12781;BME280;6454;43.304;24.344;2024-02-15T02:36:34;100893.41;;;6.09;63.39
12781;BME280;6454;43.304;24.344;2024-02-15T02:38:59;100878.63;;;5.94;63.93
12781;BME280;6454;43.304;24.344;2024-02-15T02:41:27;100883.97;;;5.84;64.40
12781;BME280;6454;43.304;24.344;2024-02-15T02:43:54;100890.06;;;5.91;63.87
12781;BME280;6454;43.304;24.344;2024-02-15T02:46:20;100879.06;;;5.81;64.08
12781;BME280;6454;43.304;24.344;2024-02-15T02:48:45;100881.38;;;5.99;64.42
12781;BME280;6454;43.304;24.344;2024-02-15T02:51:11;100898.56;;;6.00;63.86
12781;BME280;6454;43.304;24.344;2024-02-15T02:53:37;100883.25;;;5.94;64.25
12781;BME280;6454;43.304;24.344;2024-02-15T02:56:04;100902.97;;;6.11;63.29
12781;BME280;6454;43.304;24.344;2024-02-15T02:58:29;100899.47;;;6.21;63.88
12781;BME280;6454;43.304;24.344;2024-02-15T03:00:55;100904.03;;;6.05;63.44
12781;BME280;6454;43.304;24.344;2024-02-15T03:03:21;100909.16;;;5.96;63.22
12781;BME280;6454;43.304;24.344;2024-02-15T03:05:49;100892.25;;;5.94;63.00
12781;BME280;6454;43.304;24.344;2024-02-15T03:08:15;100910.88;;;6.13;63.72
12781;BME280;6454;43.304;24.344;2024-02-15T03:10:42;100912.53;;;6.14;64.21
12781;BME280;6454;43.304;24.344;2024-02-15T03:13:08;100907.06;;;6.09;63.62
12781;BME280;6454;43.304;24.344;2024-02-15T03:15:37;100885.13;;;5.88;63.54
12781;BME280;6454;43.304;24.344;2024-02-15T03:18:03;100912.53;;;6.09;63.09
12781;BME280;6454;43.304;24.344;2024-02-15T03:20:32;100920.75;;;6.24;62.93
12781;BME280;6454;43.304;24.344;2024-02-15T03:23:00;100912.34;;;6.30;62.51
12781;BME280;6454;43.304;24.344;2024-02-15T03:25:27;100920.47;;;6.20;62.48
12781;BME280;6454;43.304;24.344;2024-02-15T03:27:58;100925.66;;;6.22;63.94
12781;BME280;6454;43.304;24.344;2024-02-15T03:30:26;100927.03;;;6.24;63.56
12781;BME280;6454;43.304;24.344;2024-02-15T03:32:54;100922.78;;;5.91;63.11
12781;BME280;6454;43.304;24.344;2024-02-15T03:35:21;100922.75;;;5.86;63.39
12781;BME280;6454;43.304;24.344;2024-02-15T03:37:50;100926.94;;;6.04;63.98
12781;BME280;6454;43.304;24.344;2024-02-15T03:40:17;100911.91;;;5.96;63.59
12781;BME280;6454;43.304;24.344;2024-02-15T03:42:43;100910.00;;;5.97;63.61
12781;BME280;6454;43.304;24.344;2024-02-15T03:45:09;100925.97;;;5.83;64.16
12781;BME280;6454;43.304;24.344;2024-02-15T03:47:36;100927.59;;;5.79;64.89
12781;BME280;6454;43.304;24.344;2024-02-15T03:50:05;100928.72;;;5.83;64.63
12781;BME280;6454;43.304;24.344;2024-02-15T03:52:33;100898.97;;;5.82;64.13
12781;BME280;6454;43.304;24.344;2024-02-15T03:54:58;100919.34;;;5.69;64.76
12781;BME280;6454;43.304;24.344;2024-02-15T03:57:25;100918.25;;;5.65;64.57
12781;BME280;6454;43.304;24.344;2024-02-15T03:59:51;100923.44;;;5.72;65.07
12781;BME280;6454;43.304;24.344;2024-02-15T04:02:18;100925.66;;;5.75;64.61
12781;BME280;6454;43.304;24.344;2024-02-15T04:04:43;100910.25;;;5.54;64.24
12781;BME280;6454;43.304;24.344;2024-02-15T04:07:15;100919.28;;;5.59;64.80
12781;BME280;6454;43.304;24.344;2024-02-15T04:09:44;100919.81;;;5.56;64.46
12781;BME280;6454;43.304;24.344;2024-02-15T04:12:10;100925.31;;;5.66;64.60
12781;BME280;6454;43.304;24.344;2024-02-15T04:14:37;100929.22;;;5.75;63.26
12781;BME280;6454;43.304;24.344;2024-02-15T04:17:04;100934.81;;;5.59;64.38
12781;BME280;6454;43.304;24.344;2024-02-15T04:19:31;100928.53;;;5.58;64.84
12781;BME280;6454;43.304;24.344;2024-02-15T04:21:58;100926.81;;;5.47;64.50
12781;BME280;6454;43.304;24.344;2024-02-15T04:24:24;100934.50;;;5.55;64.18
12781;BME280;6454;43.304;24.344;2024-02-15T04:26:50;100933.94;;;5.48;63.89
12781;BME280;6454;43.304;24.344;2024-02-15T04:29:17;100944.91;;;5.58;64.84
12781;BME280;6454;43.304;24.344;2024-02-15T04:31:45;100929.16;;;5.65;63.84
12781;BME280;6454;43.304;24.344;2024-02-15T04:34:15;100941.22;;;5.79;64.01
12781;BME280;6454;43.304;24.344;2024-02-15T04:36:40;100932.22;;;5.79;63.42
12781;BME280;6454;43.304;24.344;2024-02-15T04:39:07;100948.31;;;5.80;64.42
12781;BME280;6454;43.304;24.344;2024-02-15T04:41:35;100948.63;;;5.84;64.23
12781;BME280;6454;43.304;24.344;2024-02-15T04:44:00;100954.97;;;5.89;63.41
12781;BME280;6454;43.304;24.344;2024-02-15T04:46:27;100956.03;;;5.88;63.18
12781;BME280;6454;43.304;24.344;2024-02-15T04:48:54;100951.13;;;5.85;63.47
12781;BME280;6454;43.304;24.344;2024-02-15T04:51:21;100963.03;;;5.79;62.95
12781;BME280;6454;43.304;24.344;2024-02-15T04:53:47;100955.06;;;5.68;62.73
12781;BME280;6454;43.304;24.344;2024-02-15T04:56:13;100955.31;;;5.66;62.91
12781;BME280;6454;43.304;24.344;2024-02-15T04:58:42;100960.81;;;5.71;63.21
12781;BME280;6454;43.304;24.344;2024-02-15T05:01:16;100962.75;;;5.76;63.60
12781;BME280;6454;43.304;24.344;2024-02-15T05:03:45;100950.78;;;5.82;63.43
12781;BME280;6454;43.304;24.344;2024-02-15T05:06:12;100967.47;;;5.49;63.05
12781;BME280;6454;43.304;24.344;2024-02-15T05:08:40;100968.13;;;5.66;63.63
12781;BME280;6454;43.304;24.344;2024-02-15T05:11:10;100963.19;;;5.63;63.10
12781;BME280;6454;43.304;24.344;2024-02-15T05:13:46;100976.03;;;5.62;63.24
12781;BME280;6454;43.304;24.344;2024-02-15T05:16:12;100975.22;;;5.67;63.50
12781;BME280;6454;43.304;24.344;2024-02-15T05:18:37;100981.00;;;5.70;63.39
12781;BME280;6454;43.304;24.344;2024-02-15T05:21:05;100982.75;;;5.55;62.90
12781;BME280;6454;43.304;24.344;2024-02-15T05:23:37;100991.22;;;5.53;63.44
12781;BME280;6454;43.304;24.344;2024-02-15T05:26:08;100996.25;;;5.71;64.19
12781;BME280;6454;43.304;24.344;2024-02-15T05:28:34;100994.72;;;5.49;62.96
12781;BME280;6454;43.304;24.344;2024-02-15T05:31:12;101009.81;;;5.61;62.63
12781;BME280;6454;43.304;24.344;2024-02-15T05:33:38;101004.31;;;5.56;63.48
12781;BME280;6454;43.304;24.344;2024-02-15T05:36:16;101006.41;;;5.49;64.21
12781;BME280;6454;43.304;24.344;2024-02-15T05:38:53;101004.16;;;5.41;64.05
12781;BME280;6454;43.304;24.344;2024-02-15T05:41:19;101011.06;;;5.49;63.13
12781;BME280;6454;43.304;24.344;2024-02-15T05:43:46;101002.63;;;5.50;63.47
12781;BME280;6454;43.304;24.344;2024-02-15T05:46:13;101020.91;;;5.55;63.87
12781;BME280;6454;43.304;24.344;2024-02-15T05:48:39;101015.53;;;5.33;62.73
12781;BME280;6454;43.304;24.344;2024-02-15T05:51:06;101017.31;;;5.49;62.87
12781;BME280;6454;43.304;24.344;2024-02-15T05:53:32;101018.53;;;5.63;63.45
12781;BME280;6454;43.304;24.344;2024-02-15T05:56:02;101036.56;;;5.64;63.15
12781;BME280;6454;43.304;24.344;2024-02-15T05:58:30;101035.22;;;5.67;63.01
12781;BME280;6454;43.304;24.344;2024-02-15T06:00:55;101031.09;;;5.64;63.18
12781;BME280;6454;43.304;24.344;2024-02-15T06:03:26;101029.16;;;5.60;63.46
12781;BME280;6454;43.304;24.344;2024-02-15T06:05:51;101029.16;;;5.60;62.83
12781;BME280;6454;43.304;24.344;2024-02-15T06:08:17;101040.28;;;5.53;62.97
12781;BME280;6454;43.304;24.344;2024-02-15T06:10:43;101049.66;;;5.67;62.98
12781;BME280;6454;43.304;24.344;2024-02-15T06:13:09;101051.84;;;5.65;62.27
12781;BME280;6454;43.304;24.344;2024-02-15T06:15:35;101031.97;;;5.38;62.26
12781;BME280;6454;43.304;24.344;2024-02-15T06:18:01;101042.31;;;5.41;62.79
12781;BME280;6454;43.304;24.344;2024-02-15T06:20:29;101038.56;;;5.47;61.90
12781;BME280;6454;43.304;24.344;2024-02-15T06:22:57;101052.25;;;5.52;62.66
12781;BME280;6454;43.304;24.344;2024-02-15T06:25:22;101057.06;;;5.40;62.33
12781;BME280;6454;43.304;24.344;2024-02-15T06:27:48;101053.47;;;5.34;62.21
12781;BME280;6454;43.304;24.344;2024-02-15T06:30:16;101062.06;;;5.53;62.99
12781;BME280;6454;43.304;24.344;2024-02-15T06:33:00;101051.72;;;5.55;62.45
12781;BME280;6454;43.304;24.344;2024-02-15T06:35:44;101072.38;;;5.46;62.11
12781;BME280;6454;43.304;24.344;2024-02-15T06:38:28;101064.03;;;5.58;62.20
12781;BME280;6454;43.304;24.344;2024-02-15T06:41:13;101060.03;;;5.65;62.90
12781;BME280;6454;43.304;24.344;2024-02-15T06:43:38;101061.56;;;5.56;62.23
12781;BME280;6454;43.304;24.344;2024-02-15T06:46:08;101072.81;;;5.65;62.86
12781;BME280;6454;43.304;24.344;2024-02-15T06:48:36;101077.22;;;5.71;62.46
12781;BME280;6454;43.304;24.344;2024-02-15T06:51:02;101045.31;;;5.71;62.72
12781;BME280;6454;43.304;24.344;2024-02-15T06:53:29;101062.28;;;5.73;62.37
12781;BME280;6454;43.304;24.344;2024-02-15T06:55:55;101067.09;;;5.66;62.83
12781;BME280;6454;43.304;24.344;2024-02-15T06:58:21;101070.38;;;5.68;62.26
12781;BME280;6454;43.304;24.344;2024-02-15T07:00:48;101066.91;;;5.73;62.18
12781;BME280;6454;43.304;24.344;2024-02-15T07:03:15;101078.63;;;5.73;62.12
12781;BME280;6454;43.304;24.344;2024-02-15T07:05:42;101074.31;;;5.82;61.46
12781;BME280;6454;43.304;24.344;2024-02-15T07:08:08;101056.97;;;5.88;62.02
12781;BME280;6454;43.304;24.344;2024-02-15T07:10:39;101075.59;;;6.02;62.46
12781;BME280;6454;43.304;24.344;2024-02-15T07:13:04;101080.09;;;6.18;61.42
12781;BME280;6454;43.304;24.344;2024-02-15T07:15:32;101061.47;;;6.10;62.34
12781;BME280;6454;43.304;24.344;2024-02-15T07:17:58;101080.16;;;5.91;61.00
12781;BME280;6454;43.304;24.344;2024-02-15T07:20:24;101068.16;;;5.87;60.80
12781;BME280;6454;43.304;24.344;2024-02-15T07:22:51;101086.84;;;6.10;61.45
12781;BME280;6454;43.304;24.344;2024-02-15T07:25:16;101070.81;;;6.19;60.77
12781;BME280;6454;43.304;24.344;2024-02-15T07:27:43;101080.97;;;6.28;61.38
12781;BME280;6454;43.304;24.344;2024-02-15T07:30:08;101075.66;;;6.12;60.36
12781;BME280;6454;43.304;24.344;2024-02-15T07:32:34;101080.56;;;6.10;61.06
12781;BME280;6454;43.304;24.344;2024-02-15T07:35:01;101069.59;;;5.99;60.82
12781;BME280;6454;43.304;24.344;2024-02-15T07:37:26;101082.28;;;6.21;60.24
12781;BME280;6454;43.304;24.344;2024-02-15T07:39:52;101068.13;;;6.24;60.47
12781;BME280;6454;43.304;24.344;2024-02-15T07:42:18;101076.09;;;6.30;61.08
12781;BME280;6454;43.304;24.344;2024-02-15T07:44:43;101071.38;;;6.21;60.31
12781;BME280;6454;43.304;24.344;2024-02-15T07:47:09;101061.84;;;6.23;59.44
12781;BME280;6454;43.304;24.344;2024-02-15T07:49:36;101072.00;;;6.33;58.98
12781;BME280;6454;43.304;24.344;2024-02-15T07:52:02;101068.44;;;6.27;60.28
12781;BME280;6454;43.304;24.344;2024-02-15T07:54:30;101079.22;;;6.12;59.43
12781;BME280;6454;43.304;24.344;2024-02-15T07:56:58;101062.63;;;6.19;59.54
12781;BME280;6454;43.304;24.344;2024-02-15T07:59:24;101070.88;;;6.29;60.03
12781;BME280;6454;43.304;24.344;2024-02-15T08:01:49;101064.84;;;6.22;58.54
12781;BME280;6454;43.304;24.344;2024-02-15T08:04:19;101072.91;;;6.07;59.53
12781;BME280;6454;43.304;24.344;2024-02-15T08:06:45;101082.53;;;6.14;59.24
12781;BME280;6454;43.304;24.344;2024-02-15T08:09:10;101062.38;;;6.20;60.45
12781;BME280;6454;43.304;24.344;2024-02-15T08:11:42;101073.63;;;6.34;60.29
12781;BME280;6454;43.304;24.344;2024-02-15T08:14:07;101075.84;;;6.37;59.62
12781;BME280;6454;43.304;24.344;2024-02-15T08:16:36;101061.41;;;6.41;60.66
12781;BME280;6454;43.304;24.344;2024-02-15T08:19:02;101070.50;;;6.52;59.62
12781;BME280;6454;43.304;24.344;2024-02-15T08:21:31;101062.59;;;6.60;59.97
12781;BME280;6454;43.304;24.344;2024-02-15T08:24:03;101055.75;;;6.58;58.83
12781;BME280;6454;43.304;24.344;2024-02-15T08:26:40;101042.59;;;6.50;60.70
12781;BME280;6454;43.304;24.344;2024-02-15T08:29:07;101045.97;;;6.67;58.44
12781;BME280;6454;43.304;24.344;2024-02-15T08:31:32;101050.34;;;6.63;60.02
12781;BME280;6454;43.304;24.344;2024-02-15T08:33:59;101055.81;;;6.63;59.14
12781;BME280;6454;43.304;24.344;2024-02-15T08:36:25;101042.69;;;6.65;58.29
12781;BME280;6454;43.304;24.344;2024-02-15T08:38:51;101050.13;;;6.80;58.85
12781;BME280;6454;43.304;24.344;2024-02-15T08:41:16;101050.97;;;6.90;60.11
12781;BME280;6454;43.304;24.344;2024-02-15T08:43:46;101051.56;;;6.92;58.61
12781;BME280;6454;43.304;24.344;2024-02-15T08:46:14;101049.59;;;6.88;59.17
12781;BME280;6454;43.304;24.344;2024-02-15T08:48:39;101041.72;;;7.01;59.30
12781;BME280;6454;43.304;24.344;2024-02-15T08:51:12;101033.28;;;7.08;59.61
12781;BME280;6454;43.304;24.344;2024-02-15T08:53:43;101045.06;;;7.24;58.32
12781;BME280;6454;43.304;24.344;2024-02-15T08:56:12;101053.84;;;7.36;58.49
12781;BME280;6454;43.304;24.344;2024-02-15T08:58:37;101059.31;;;7.36;59.24
12781;BME280;6454;43.304;24.344;2024-02-15T09:01:04;101047.84;;;7.39;59.02
12781;BME280;6454;43.304;24.344;2024-02-15T09:03:32;101040.72;;;7.48;56.58
12781;BME280;6454;43.304;24.344;2024-02-15T09:05:58;101055.75;;;7.45;58.78
12781;BME280;6454;43.304;24.344;2024-02-15T09:08:28;101058.78;;;7.49;56.61
12781;BME280;6454;43.304;24.344;2024-02-15T09:10:55;101032.22;;;7.39;58.83
12781;BME280;6454;43.304;24.344;2024-02-15T09:13:20;101039.09;;;7.52;58.45
12781;BME280;6454;43.304;24.344;2024-02-15T09:15:47;101038.00;;;7.68;57.88
12781;BME280;6454;43.304;24.344;2024-02-15T09:18:13;101028.16;;;7.67;58.76
12781;BME280;6454;43.304;24.344;2024-02-15T09:20:40;101038.84;;;7.63;55.85
12781;BME280;6454;43.304;24.344;2024-02-15T09:23:10;101032.25;;;7.59;58.48
12781;BME280;6454;43.304;24.344;2024-02-15T09:25:40;101030.63;;;7.68;55.88
12781;BME280;6454;43.304;24.344;2024-02-15T09:28:08;101031.72;;;7.72;55.78
12781;BME280;6454;43.304;24.344;2024-02-15T09:30:33;101035.28;;;7.78;56.58
12781;BME280;6454;43.304;24.344;2024-02-15T09:33:01;101018.84;;;7.83;56.89
12781;BME280;6454;43.304;24.344;2024-02-15T09:35:27;101033.09;;;7.90;59.27
12781;BME280;6454;43.304;24.344;2024-02-15T09:37:52;101032.78;;;8.02;56.21
12781;BME280;6454;43.304;24.344;2024-02-15T09:40:20;101031.97;;;8.11;57.25
12781;BME280;6454;43.304;24.344;2024-02-15T09:42:47;101023.22;;;8.09;56.05
12781;BME280;6454;43.304;24.344;2024-02-15T09:45:13;101013.63;;;8.12;57.31
12781;BME280;6454;43.304;24.344;2024-02-15T09:47:44;101009.22;;;8.16;56.30
12781;BME280;6454;43.304;24.344;2024-02-15T09:50:11;100992.00;;;8.05;55.80
12781;BME280;6454;43.304;24.344;2024-02-15T09:52:40;101007.03;;;8.23;54.21
12781;BME280;6454;43.304;24.344;2024-02-15T09:55:07;100999.94;;;8.17;54.54
12781;BME280;6454;43.304;24.344;2024-02-15T09:57:39;101012.78;;;8.16;57.47
12781;BME280;6454;43.304;24.344;2024-02-15T10:00:05;100997.75;;;8.09;55.15
12781;BME280;6454;43.304;24.344;2024-02-15T10:02:34;100988.44;;;8.15;56.52
12781;BME280;6454;43.304;24.344;2024-02-15T10:05:02;100998.00;;;8.22;57.21
12781;BME280;6454;43.304;24.344;2024-02-15T10:07:27;100998.28;;;8.26;56.20
12781;BME280;6454;43.304;24.344;2024-02-15T10:09:54;100975.28;;;8.22;55.37
12781;BME280;6454;43.304;24.344;2024-02-15T10:12:19;101001.75;;;8.52;55.22
12781;BME280;6454;43.304;24.344;2024-02-15T10:14:53;101004.47;;;8.67;55.24
12781;BME280;6454;43.304;24.344;2024-02-15T10:17:19;100989.38;;;8.64;55.63
12781;BME280;6454;43.304;24.344;2024-02-15T10:19:45;100983.88;;;8.64;55.57
12781;BME280;6454;43.304;24.344;2024-02-15T10:22:27;100983.31;;;8.77;55.64
12781;BME280;6454;43.304;24.344;2024-02-15T10:25:09;100985.72;;;8.84;55.83
12781;BME280;6454;43.304;24.344;2024-02-15T10:27:36;100972.63;;;8.71;56.94
12781;BME280;6454;43.304;24.344;2024-02-15T10:32:43;100974.72;;;8.94;57.36
12781;BME280;6454;43.304;24.344;2024-02-15T10:35:08;100970.25;;;9.03;54.21
12781;BME280;6454;43.304;24.344;2024-02-15T10:37:40;100969.50;;;8.92;54.48
12781;BME280;6454;43.304;24.344;2024-02-15T10:40:07;100961.50;;;9.01;53.73
12781;BME280;6454;43.304;24.344;2024-02-15T10:42:34;100962.97;;;8.88;54.25
12781;BME280;6454;43.304;24.344;2024-02-15T10:45:04;100969.78;;;8.96;53.25
12781;BME280;6454;43.304;24.344;2024-02-15T10:47:31;100954.16;;;8.96;55.94
12781;BME280;6454;43.304;24.344;2024-02-15T10:49:57;100947.81;;;9.01;55.69
12781;BME280;6454;43.304;24.344;2024-02-15T10:52:24;100961.38;;;9.21;55.72
12781;BME280;6454;43.304;24.344;2024-02-15T10:55:03;100941.84;;;9.28;54.14
12781;BME280;6454;43.304;24.344;2024-02-15T10:57:31;100947.84;;;9.30;54.54
12781;BME280;6454;43.304;24.344;2024-02-15T10:59:59;100948.03;;;9.43;54.00
12781;BME280;6454;43.304;24.344;2024-02-15T11:02:37;100962.25;;;9.50;54.62
12781;BME280;6454;43.304;24.344;2024-02-15T11:05:05;100946.88;;;9.49;54.32
12781;BME280;6454;43.304;24.344;2024-02-15T11:07:34;100940.50;;;9.59;54.16
12781;BME280;6454;43.304;24.344;2024-02-15T11:10:00;100930.03;;;9.61;53.32
12781;BME280;6454;43.304;24.344;2024-02-15T11:12:26;100936.41;;;9.56;52.21
12781;BME280;6454;43.304;24.344;2024-02-15T11:14:52;100931.00;;;9.46;54.46
12781;BME280;6454;43.304;24.344;2024-02-15T11:20:08;100929.84;;;9.52;54.87
12781;BME280;6454;43.304;24.344;2024-02-15T11:22:35;100928.03;;;9.72;53.72
12781;BME280;6454;43.304;24.344;2024-02-15T11:25:08;100921.38;;;9.78;54.28
12781;BME280;6454;43.304;24.344;2024-02-15T11:27:38;100922.41;;;9.82;54.51
12781;BME280;6454;43.304;24.344;2024-02-15T11:30:05;100903.78;;;9.79;53.00
12781;BME280;6454;43.304;24.344;2024-02-15T11:32:46;100905.94;;;9.82;52.16
12781;BME280;6454;43.304;24.344;2024-02-15T11:35:15;100908.69;;;9.82;53.19
12781;BME280;6454;43.304;24.344;2024-02-15T11:43:01;100911.16;;;10.07;52.57
12781;BME280;6454;43.304;24.344;2024-02-15T11:45:29;100875.47;;;9.83;53.83
12781;BME280;6454;43.304;24.344;2024-02-15T11:48:08;100907.34;;;10.03;53.86
12781;BME280;6454;43.304;24.344;2024-02-15T11:50:37;100908.50;;;10.02;53.08
12781;BME280;6454;43.304;24.344;2024-02-15T11:53:05;100893.41;;;9.99;55.06
12781;BME280;6454;43.304;24.344;2024-02-15T11:55:35;100896.94;;;10.05;54.11
12781;BME280;6454;43.304;24.344;2024-02-15T11:58:02;100901.66;;;10.23;54.18
12781;BME280;6454;43.304;24.344;2024-02-15T12:00:41;100906.56;;;10.26;54.58
12781;BME280;6454;43.304;24.344;2024-02-15T12:03:25;100898.63;;;10.25;52.92
12781;BME280;6454;43.304;24.344;2024-02-15T12:06:09;100906.56;;;10.26;53.70
12781;BME280;6454;43.304;24.344;2024-02-15T12:08:54;100893.88;;;10.30;54.80
12781;BME280;6454;43.304;24.344;2024-02-15T12:11:39;100893.00;;;10.35;55.04
12781;BME280;6454;43.304;24.344;2024-02-15T12:14:24;100903.69;;;10.36;54.13
12781;BME280;6454;43.304;24.344;2024-02-15T12:17:10;100897.16;;;10.32;53.71
12781;BME280;6454;43.304;24.344;2024-02-15T12:19:56;100895.00;;;10.29;53.53
12781;BME280;6454;43.304;24.344;2024-02-15T12:25:19;100900.63;;;10.19;53.89
12781;BME280;6454;43.304;24.344;2024-02-15T12:27:52;100886.66;;;10.15;54.00
12781;BME280;6454;43.304;24.344;2024-02-15T12:30:18;100912.53;;;10.33;54.37
12781;BME280;6454;43.304;24.344;2024-02-15T12:32:48;100905.50;;;10.22;54.85
12781;BME280;6454;43.304;24.344;2024-02-15T12:35:15;100897.50;;;10.26;55.72
12781;BME280;6454;43.304;24.344;2024-02-15T12:40:34;100900.28;;;10.44;54.07
12781;BME280;6454;43.304;24.344;2024-02-15T12:43:01;100885.53;;;10.40;54.11
12781;BME280;6454;43.304;24.344;2024-02-15T12:45:30;100887.13;;;10.41;53.74
12781;BME280;6454;43.304;24.344;2024-02-15T12:47:56;100896.38;;;10.50;52.75
12781;BME280;6454;43.304;24.344;2024-02-15T12:50:29;100895.09;;;10.43;54.17
12781;BME280;6454;43.304;24.344;2024-02-15T12:52:55;100896.31;;;10.55;53.34
12781;BME280;6454;43.304;24.344;2024-02-15T12:55:25;100888.72;;;10.47;53.20
12781;BME280;6454;43.304;24.344;2024-02-15T12:57:51;100892.97;;;10.58;53.41
12781;BME280;6454;43.304;24.344;2024-02-15T13:00:25;100888.56;;;10.57;54.26
12781;BME280;6454;43.304;24.344;2024-02-15T13:02:55;100894.03;;;10.62;54.52
12781;BME280;6454;43.304;24.344;2024-02-15T13:05:21;100882.88;;;10.72;55.10
12781;BME280;6454;43.304;24.344;2024-02-15T13:07:50;100883.78;;;10.68;54.01
12781;BME280;6454;43.304;24.344;2024-02-15T13:10:16;100883.53;;;10.64;53.90
12781;BME280;6454;43.304;24.344;2024-02-15T13:12:44;100870.81;;;10.68;54.05
12781;BME280;6454;43.304;24.344;2024-02-15T13:15:11;100866.81;;;10.80;53.42
12781;BME280;6454;43.304;24.344;2024-02-15T13:17:43;100882.88;;;10.72;52.66
12781;BME280;6454;43.304;24.344;2024-02-15T13:20:10;100865.31;;;10.68;52.76